createdAt,value
2019-06-07T00:02:01.079Z,17.06
2019-06-07T00:04:31.068Z,17.05
2019-06-07T00:07:03.747Z,16.98
2019-06-07T00:09:33.774Z,16.94
2019-06-07T00:12:03.967Z,16.77
2019-06-07T00:14:33.978Z,16.85
2019-06-07T00:17:04.185Z,16.79
2019-06-07T00:19:34.195Z,16.50
2019-06-07T00:22:16.569Z,16.29
2019-06-07T00:24:36.053Z,16.59
2019-06-07T00:27:06.111Z,16.68
2019-06-07T00:29:36.239Z,16.66
2019-06-07T00:32:06.327Z,16.60
2019-06-07T00:34:36.327Z,16.61
2019-06-07T00:37:07.103Z,16.46
2019-06-07T00:39:37.204Z,16.19
2019-06-07T00:42:07.314Z,16.41
2019-06-07T00:44:37.359Z,16.59
2019-06-07T00:47:07.346Z,16.55
2019-06-07T00:49:41.467Z,16.59
2019-06-07T00:52:09.139Z,16.48
2019-06-07T00:54:39.301Z,16.47
2019-06-07T00:57:09.312Z,16.44
2019-06-07T00:59:39.388Z,16.49
2019-06-07T01:02:09.387Z,16.40
2019-06-07T01:04:39.471Z,16.44
2019-06-07T01:07:09.493Z,16.60
2019-06-07T01:09:40.626Z,16.55
2019-06-07T01:12:10.618Z,16.30
2019-06-07T01:14:40.669Z,16.17
2019-06-07T01:17:27.601Z,16.25
2019-06-07T01:19:50.992Z,16.27
2019-06-07T01:22:23.412Z,16.32
2019-06-07T01:24:52.754Z,16.27
2019-06-07T01:27:25.446Z,16.13
2019-06-07T01:29:54.573Z,16.29
2019-06-07T01:32:27.106Z,16.10
2019-06-07T01:34:56.423Z,16.05
2019-06-07T01:37:27.974Z,16.28
2019-06-07T01:39:58.207Z,16.19
2019-06-07T01:42:30.483Z,16.23
2019-06-07T01:45:00.049Z,16.11
2019-06-07T01:47:32.186Z,16.08
2019-06-07T01:50:01.871Z,16.13
2019-06-07T01:52:32.890Z,16.22
2019-06-07T01:55:02.895Z,16.15
2019-06-07T01:57:45.578Z,16.17
2019-06-07T02:00:07.614Z,16.01
2019-06-07T02:02:37.632Z,16.12
2019-06-07T02:05:08.962Z,16.00
2019-06-07T02:07:39.007Z,16.02
2019-06-07T02:10:10.659Z,16.06
2019-06-07T02:12:43.547Z,16.14
2019-06-07T02:15:13.252Z,16.08
2019-06-07T02:17:43.352Z,16.12
2019-06-07T02:20:13.627Z,16.10
2019-06-07T02:22:43.678Z,16.27
2019-06-07T02:27:45.535Z,16.15
2019-06-07T02:30:40.299Z,16.13
2019-06-07T02:32:48.301Z,15.99
2019-06-07T02:35:18.389Z,15.97
2019-06-07T02:37:48.438Z,16.03
2019-06-07T02:40:18.794Z,15.89
2019-06-07T02:42:48.908Z,15.96
2019-06-07T02:45:20.027Z,15.99
2019-06-07T02:47:51.740Z,16.02
2019-06-07T02:50:25.594Z,16.16
2019-06-07T02:52:55.358Z,16.06
2019-06-07T02:55:29.107Z,15.93
2019-06-07T02:57:57.084Z,16.02
2019-06-07T03:01:05.484Z,16.05
2019-06-07T03:03:18.497Z,15.80
2019-06-07T03:05:48.687Z,15.99
2019-06-07T03:08:18.729Z,15.94
2019-06-07T03:10:50.375Z,15.66
2019-06-07T03:13:22.735Z,15.88
2019-06-07T03:15:54.447Z,15.84
2019-06-07T03:18:42.346Z,15.80
2019-06-07T03:21:13.974Z,15.87
2019-06-07T03:23:45.192Z,16.34
2019-06-07T03:26:17.733Z,16.31
2019-06-07T03:28:47.803Z,16.45
2019-06-07T03:31:17.817Z,16.45
2019-06-07T03:33:47.807Z,16.39
2019-06-07T03:36:23.824Z,16.26
2019-06-07T03:38:51.432Z,16.31
2019-06-07T03:41:21.492Z,16.48
2019-06-07T03:43:51.492Z,16.43
2019-06-07T03:46:21.547Z,16.40
2019-06-07T03:48:51.633Z,16.35
2019-06-07T03:51:25.322Z,15.98
2019-06-07T03:53:53.411Z,15.65
2019-06-07T03:56:23.438Z,15.74
2019-06-07T03:58:53.518Z,15.86
2019-06-07T04:01:23.605Z,15.83
2019-06-07T04:03:53.695Z,15.89
2019-06-07T04:06:24.935Z,16.05
2019-06-07T04:08:54.965Z,16.16
2019-06-07T04:11:24.969Z,16.13
2019-06-07T04:13:54.981Z,15.82
2019-06-07T04:16:25.019Z,15.76
2019-06-07T04:18:55.027Z,16.09
2019-06-07T04:21:25.049Z,16.13
2019-06-07T04:23:55.177Z,16.21
2019-06-07T04:26:25.172Z,16.21
2019-06-07T04:29:31.808Z,16.35
2019-06-07T04:31:26.935Z,16.38
2019-06-07T04:33:57.089Z,16.33
2019-06-07T04:36:41.831Z,16.33
2019-06-07T04:39:00.996Z,16.35
2019-06-07T04:41:33.661Z,16.35
2019-06-07T04:44:04.925Z,16.31
2019-06-07T04:46:39.866Z,16.38
2019-06-07T04:49:12.155Z,16.41
2019-06-07T04:51:43.817Z,16.37
2019-06-07T04:54:13.834Z,16.38
2019-06-07T04:56:44.759Z,16.45
2019-06-07T05:00:00.377Z,16.37
2019-06-07T05:01:46.707Z,16.22
2019-06-07T05:04:16.736Z,16.35
2019-06-07T05:06:46.789Z,16.41
2019-06-07T05:09:16.793Z,16.53
2019-06-07T05:11:46.872Z,16.54
2019-06-07T05:14:17.070Z,16.53
2019-06-07T05:16:47.158Z,16.48
2019-06-07T05:19:17.378Z,16.50
2019-06-07T05:22:02.615Z,16.54
2019-06-07T05:24:19.118Z,16.46
2019-06-07T05:26:49.119Z,16.41
2019-06-07T05:29:19.223Z,16.44
2019-06-07T05:31:49.718Z,15.64
2019-06-07T05:34:19.886Z,15.87
2019-06-07T05:37:10.381Z,15.99
2019-06-07T05:39:21.599Z,16.11
2019-06-07T05:41:51.685Z,16.12
2019-06-07T05:44:21.738Z,16.25
2019-06-07T05:46:51.741Z,15.96
2019-06-07T05:49:21.757Z,15.94
2019-06-07T05:51:51.775Z,15.82
2019-06-07T05:54:21.819Z,15.86
2019-06-07T05:56:51.854Z,15.94
2019-06-07T05:59:21.879Z,16.09
2019-06-07T06:01:59.830Z,15.98
2019-06-07T06:04:23.650Z,15.83
2019-06-07T06:06:53.666Z,15.98
2019-06-07T06:09:23.672Z,16.04
2019-06-07T06:12:01.726Z,16.03
2019-06-07T06:14:25.458Z,16.04
2019-06-07T06:16:55.514Z,15.97
2019-06-07T06:19:25.563Z,16.13
2019-06-07T06:21:55.566Z,15.89
2019-06-07T06:24:25.616Z,15.92
2019-06-07T06:27:14.911Z,16.36
2019-06-07T06:29:27.334Z,18.01
2019-06-07T06:32:40.470Z,16.19
2019-06-07T06:34:29.086Z,15.83
2019-06-07T06:36:59.137Z,15.86
2019-06-07T06:39:29.137Z,15.71
2019-06-07T06:42:03.736Z,15.37
2019-06-07T06:44:30.879Z,15.55
2019-06-07T06:47:00.953Z,15.86
2019-06-07T06:49:32.035Z,15.95
2019-06-07T06:52:02.115Z,16.12
2019-06-07T06:54:40.679Z,16.04
2019-06-07T06:57:19.180Z,16.10
2019-06-07T07:05:19.564Z,16.06
2019-06-07T07:07:52.626Z,15.83
2019-06-07T07:10:40.673Z,15.81
2019-06-07T07:13:10.894Z,15.94
2019-06-07T07:15:42.826Z,16.11
2019-06-07T07:18:12.962Z,17.75
2019-06-07T07:20:45.036Z,16.94
2019-06-07T07:23:14.868Z,16.01
2019-06-07T07:25:49.544Z,16.07
2019-06-07T07:28:16.647Z,16.48
2019-06-07T07:30:55.262Z,16.26
2019-06-07T07:33:24.991Z,17.42
2019-06-07T07:36:15.812Z,17.31
2019-06-07T07:38:26.945Z,18.33
2019-06-07T07:41:12.239Z,17.55
2019-06-07T07:43:29.787Z,18.18
2019-06-07T07:46:03.147Z,17.87
2019-06-07T07:48:31.749Z,17.42
2019-06-07T07:51:03.337Z,17.60
2019-06-07T07:53:48.583Z,17.27
2019-06-07T07:56:05.903Z,17.03
2019-06-07T07:58:36.322Z,17.18
2019-06-07T08:01:10.752Z,17.57
2019-06-07T08:03:38.392Z,17.18
2019-06-07T08:06:08.447Z,17.31
2019-06-07T08:08:38.510Z,17.55
2019-06-07T08:11:08.574Z,16.78
2019-06-07T08:13:38.845Z,18.02
2019-06-07T08:16:15.028Z,16.65
2019-06-07T08:18:40.644Z,16.52
2019-06-07T08:21:24.863Z,17.15
2019-06-07T08:23:42.360Z,17.88
2019-06-07T08:26:12.362Z,17.49
2019-06-07T08:28:42.441Z,16.90
2019-06-07T08:31:12.446Z,18.36
2019-06-07T08:33:42.450Z,17.54
2019-06-07T08:36:21.873Z,17.12
2019-06-07T08:38:48.338Z,17.23
2019-06-07T08:41:17.634Z,16.38
2019-06-07T08:43:49.216Z,16.59
2019-06-07T08:46:19.515Z,17.32
2019-06-07T08:48:49.997Z,16.94
2019-06-07T08:51:21.298Z,16.87
2019-06-07T08:54:08.672Z,16.75
2019-06-07T08:56:23.053Z,16.54
2019-06-07T08:59:00.367Z,17.24
2019-06-07T09:01:27.846Z,16.70
2019-06-07T09:04:02.650Z,16.75
2019-06-07T09:09:03.536Z,17.32
2019-06-07T09:11:33.359Z,17.39
2019-06-07T09:14:08.776Z,18.46
2019-06-07T09:16:35.708Z,18.78
2019-06-07T09:19:10.696Z,18.97
2019-06-07T09:21:37.750Z,19.04
2019-06-07T09:24:11.366Z,17.98
2019-06-07T09:26:39.658Z,17.83
2019-06-07T09:29:11.937Z,17.32
2019-06-07T09:31:52.844Z,17.80
2019-06-07T09:34:15.155Z,17.86
2019-06-07T09:36:47.190Z,17.47
2019-06-07T09:39:17.252Z,17.71
2019-06-07T09:41:50.065Z,18.31
2019-06-07T09:44:25.788Z,18.41
2019-06-07T09:47:12.951Z,18.66
2019-06-07T09:49:32.074Z,18.41
2019-06-07T09:51:55.760Z,17.86
2019-06-07T09:55:03.371Z,18.07
2019-06-07T09:57:00.329Z,17.93
2019-06-07T09:59:31.159Z,18.19
2019-06-07T10:02:03.608Z,17.58
2019-06-07T10:04:33.208Z,17.98
2019-06-07T10:07:10.548Z,17.62
2019-06-07T10:10:09.840Z,17.87
2019-06-07T10:12:08.525Z,17.72
2019-06-07T10:14:38.647Z,17.24
2019-06-07T10:17:09.199Z,17.26
2019-06-07T10:19:39.371Z,17.14
2019-06-07T10:22:09.737Z,17.14
2019-06-07T10:24:39.849Z,16.88
2019-06-07T10:27:10.964Z,17.02
2019-06-07T10:29:41.041Z,17.15
2019-06-07T10:32:11.512Z,17.17
2019-06-07T10:34:41.660Z,17.26
2019-06-07T10:37:15.487Z,17.22
2019-06-07T10:39:48.723Z,17.19
2019-06-07T10:42:15.128Z,17.33
2019-06-07T10:44:45.154Z,17.61
2019-06-07T10:47:15.149Z,17.26
2019-06-07T10:49:45.180Z,16.93
2019-06-07T10:52:15.193Z,17.18
2019-06-07T10:54:45.188Z,16.96
2019-06-07T10:57:16.206Z,16.69
2019-06-07T10:59:46.483Z,16.85
2019-06-07T11:02:16.549Z,17.02
2019-06-07T11:04:46.584Z,17.37
2019-06-07T11:07:16.581Z,17.45
2019-06-07T11:09:46.581Z,17.28
2019-06-07T11:12:16.581Z,17.45
2019-06-07T11:14:46.582Z,17.60
2019-06-07T11:17:17.877Z,17.66
2019-06-07T11:19:47.989Z,17.54
2019-06-07T11:22:18.589Z,17.41
2019-06-07T11:24:48.595Z,17.63
2019-06-07T11:27:19.159Z,17.65
2019-06-07T11:29:49.324Z,17.61
2019-06-07T11:32:19.379Z,17.47
2019-06-07T11:34:50.463Z,17.61
2019-06-07T11:37:20.478Z,17.41
2019-06-07T11:39:50.469Z,17.45
2019-06-07T11:42:20.557Z,17.52
2019-06-07T11:44:56.778Z,17.79
2019-06-07T11:47:22.263Z,17.99
2019-06-07T11:49:52.312Z,18.22
2019-06-07T11:52:22.293Z,18.00
2019-06-07T11:54:52.284Z,18.03
2019-06-07T11:57:22.270Z,18.07
2019-06-07T11:59:52.292Z,18.16
2019-06-07T12:02:22.267Z,18.08
2019-06-07T12:04:52.305Z,18.07
2019-06-07T12:07:22.302Z,18.10
2019-06-07T12:09:56.461Z,17.65
2019-06-07T12:12:24.043Z,18.44
2019-06-07T12:14:54.045Z,18.02
2019-06-07T12:17:25.119Z,17.96
2019-06-07T12:19:55.153Z,18.11
2019-06-07T12:22:25.237Z,18.36
2019-06-07T12:24:55.248Z,18.25
2019-06-07T12:27:25.323Z,18.72
2019-06-07T12:29:55.378Z,18.50
2019-06-07T12:32:25.386Z,18.08
2019-06-07T12:34:55.394Z,18.62
2019-06-07T12:37:42.010Z,18.40
2019-06-07T12:39:57.134Z,18.42
2019-06-07T12:42:27.117Z,18.48
2019-06-07T12:44:57.240Z,18.47
2019-06-07T12:47:27.220Z,18.32
2019-06-07T12:49:57.214Z,18.47
2019-06-07T12:52:27.208Z,18.70
2019-06-07T12:54:57.223Z,18.51
2019-06-07T12:57:27.223Z,18.50
2019-06-07T12:59:57.234Z,18.89
2019-06-07T13:02:27.252Z,18.80
2019-06-07T13:04:57.232Z,18.51
2019-06-07T13:07:27.975Z,19.70
2019-06-07T13:09:58.126Z,19.58
2019-06-07T13:12:28.271Z,20.23
2019-06-07T13:14:59.376Z,20.06
2019-06-07T13:17:29.361Z,19.63
2019-06-07T13:19:59.416Z,19.81
2019-06-07T13:22:29.407Z,19.49
2019-06-07T13:24:59.729Z,18.85
2019-06-07T13:27:33.367Z,18.93
2019-06-07T13:30:09.172Z,18.75
2019-06-07T13:32:33.242Z,18.51
2019-06-07T13:35:04.170Z,18.48
2019-06-07T13:37:34.237Z,18.66
2019-06-07T13:40:06.594Z,18.88
2019-06-07T13:42:36.572Z,18.85
2019-06-07T13:45:08.821Z,18.80
2019-06-07T13:47:38.992Z,18.51
2019-06-07T13:50:10.524Z,18.36
2019-06-07T13:52:42.110Z,18.36
2019-06-07T13:55:15.180Z,18.11
2019-06-07T13:57:45.189Z,17.64
2019-06-07T14:00:16.422Z,18.07
2019-06-07T14:02:46.483Z,18.14
2019-06-07T14:05:16.617Z,18.15
2019-06-07T14:07:46.640Z,18.12
2019-06-07T14:10:16.705Z,18.06
2019-06-07T14:12:46.775Z,18.26
2019-06-07T14:15:18.385Z,18.17
2019-06-07T14:17:48.526Z,18.35
2019-06-07T14:20:18.697Z,18.87
2019-06-07T14:22:54.004Z,18.59
2019-06-07T14:25:23.018Z,18.57
2019-06-07T14:27:54.207Z,19.47
2019-06-07T14:30:25.906Z,19.35
2019-06-07T14:32:56.074Z,19.83
2019-06-07T14:35:26.721Z,19.71
2019-06-07T14:37:56.959Z,20.03
2019-06-07T14:40:27.915Z,19.99
2019-06-07T14:42:58.102Z,20.26
2019-06-07T14:45:28.178Z,20.05
2019-06-07T14:47:58.235Z,19.96
2019-06-07T14:50:28.390Z,19.96
2019-06-07T14:52:58.405Z,20.53
2019-06-07T14:55:28.973Z,20.79
2019-06-07T14:57:59.006Z,19.91
2019-06-07T15:00:41.128Z,19.87
2019-06-07T15:03:11.476Z,20.22
2019-06-07T15:05:41.491Z,19.41
2019-06-07T15:08:12.722Z,19.71
2019-06-07T15:10:42.708Z,19.89
2019-06-07T15:13:12.765Z,19.87
2019-06-07T15:15:42.892Z,20.17
2019-06-07T15:18:12.907Z,19.79
2019-06-07T15:20:42.911Z,19.97
2019-06-07T15:23:12.899Z,19.88
2019-06-07T15:25:42.909Z,19.80
2019-06-07T15:28:12.985Z,19.28
2019-06-07T15:30:43.010Z,19.13
2019-06-07T15:33:13.373Z,19.20
2019-06-07T15:35:43.361Z,19.14
2019-06-07T15:38:13.422Z,19.30
2019-06-07T15:40:43.428Z,19.75
2019-06-07T15:43:13.498Z,19.52
2019-06-07T15:45:43.492Z,19.69
2019-06-07T15:48:13.503Z,19.86
2019-06-07T15:50:43.601Z,19.97
2019-06-07T15:53:13.640Z,20.14
2019-06-07T15:55:45.805Z,19.71
2019-06-07T15:58:15.987Z,19.64
2019-06-07T16:00:45.983Z,19.71
2019-06-07T16:03:15.991Z,19.85
2019-06-07T16:05:45.993Z,20.55
2019-06-07T16:08:15.970Z,21.53
2019-06-07T16:10:46.029Z,20.82
2019-06-07T16:13:16.023Z,20.43
2019-06-07T16:15:46.015Z,21.07
2019-06-07T16:18:16.074Z,20.20
2019-06-07T16:20:46.065Z,19.70
2019-06-07T16:23:16.126Z,19.86
2019-06-07T16:25:46.110Z,20.13
2019-06-07T16:28:16.117Z,20.01
2019-06-07T16:30:46.141Z,19.86
2019-06-07T16:33:16.181Z,19.78
2019-06-07T16:35:46.181Z,19.98
2019-06-07T16:38:16.213Z,19.67
2019-06-07T16:40:46.212Z,19.52
2019-06-07T16:43:18.206Z,19.42
2019-06-07T16:45:49.064Z,19.44
2019-06-07T16:48:19.358Z,19.68
2019-06-07T16:50:49.430Z,19.84
2019-06-07T16:53:19.425Z,19.82
2019-06-07T16:55:49.435Z,20.20
2019-06-07T16:58:19.436Z,19.90
2019-06-07T17:00:49.558Z,19.53
2019-06-07T17:03:19.548Z,19.86
2019-06-07T17:05:50.561Z,20.09
2019-06-07T17:08:20.726Z,19.75
2019-06-07T17:10:50.702Z,19.48
2019-06-07T17:13:33.009Z,19.58
2019-06-07T17:15:52.458Z,19.55
2019-06-07T17:18:22.472Z,19.51
2019-06-07T17:20:52.477Z,19.49
2019-06-07T17:23:22.488Z,19.46
2019-06-07T17:25:52.484Z,19.73
2019-06-07T17:28:22.474Z,19.69
2019-06-07T17:30:52.626Z,20.09
2019-06-07T17:33:22.677Z,19.78
2019-06-07T17:35:52.770Z,19.85
2019-06-07T17:38:22.799Z,20.05
2019-06-07T17:40:52.821Z,20.41
2019-06-07T17:43:22.863Z,20.38
2019-06-07T17:45:52.858Z,20.52
2019-06-07T17:48:24.057Z,20.17
2019-06-07T17:50:55.144Z,20.52
2019-06-07T17:53:25.178Z,20.55
2019-06-07T17:55:55.172Z,20.75
2019-06-07T17:58:25.280Z,19.62
2019-06-07T18:00:55.326Z,19.49
2019-06-07T18:03:25.367Z,19.17
2019-06-07T18:05:55.488Z,19.50
2019-06-07T18:08:25.649Z,19.53
2019-06-07T18:10:56.726Z,19.07
2019-06-07T18:13:26.800Z,19.46
2019-06-07T18:15:59.471Z,18.86
2019-06-07T18:18:28.645Z,19.38
2019-06-07T18:20:58.629Z,20.77
2019-06-07T18:23:28.668Z,21.12
2019-06-07T18:25:58.895Z,21.07
2019-06-07T18:28:28.941Z,20.66
2019-06-07T18:30:59.021Z,20.92
2019-06-07T18:33:29.049Z,20.49
2019-06-07T18:35:59.506Z,20.96
2019-06-07T18:38:29.517Z,20.53
2019-06-07T18:40:59.703Z,20.52
2019-06-07T18:43:29.686Z,20.37
2019-06-07T18:45:59.700Z,20.52
2019-06-07T18:48:29.722Z,20.22
2019-06-07T18:50:59.762Z,20.37
2019-06-07T18:53:29.788Z,18.79
2019-06-07T18:55:59.790Z,17.89
2019-06-07T18:58:29.858Z,17.79
2019-06-07T19:00:59.853Z,17.75
2019-06-07T19:03:29.908Z,17.61
2019-06-07T19:05:59.893Z,17.31
2019-06-07T19:08:29.935Z,17.26
2019-06-07T19:10:59.947Z,17.19
2019-06-07T19:13:29.964Z,17.10
2019-06-07T19:16:00.018Z,17.12
2019-06-07T19:18:30.060Z,17.00
2019-06-07T19:21:00.735Z,16.78
2019-06-07T19:23:30.963Z,16.67
2019-06-07T19:26:00.979Z,16.60
2019-06-07T19:28:31.009Z,16.66
2019-06-07T19:31:01.343Z,16.41
2019-06-07T19:33:31.522Z,16.47
2019-06-07T19:36:01.885Z,16.26
2019-06-07T19:38:32.058Z,16.33
2019-06-07T19:41:16.544Z,16.21
2019-06-07T19:43:33.765Z,16.04
2019-06-07T19:46:03.762Z,16.07
2019-06-07T19:48:33.768Z,15.94
2019-06-07T19:51:03.839Z,15.73
2019-06-07T19:53:33.836Z,15.54
2019-06-07T19:56:03.925Z,15.66
2019-06-07T19:58:33.932Z,15.54
2019-06-07T20:21:13.994Z,14.70
2019-06-07T20:23:44.007Z,14.78
2019-06-07T20:26:13.996Z,14.73
2019-06-07T20:28:43.980Z,14.54
2019-06-07T20:31:13.995Z,14.33
2019-06-07T20:33:44.267Z,14.20
2019-06-07T20:36:14.306Z,14.36
2019-06-07T20:38:45.964Z,14.28
2019-06-07T20:41:15.982Z,14.24
2019-06-07T20:43:46.060Z,14.08
2019-06-07T20:46:16.171Z,13.85
2019-06-07T20:48:46.190Z,13.89
2019-06-07T20:51:16.169Z,13.86
2019-06-07T20:53:46.306Z,13.92
2019-06-07T20:56:16.288Z,13.94
2019-06-07T20:58:46.330Z,13.90
2019-06-07T21:01:16.389Z,13.71
2019-06-07T21:03:46.437Z,13.69
2019-06-07T21:06:16.410Z,13.68
2019-06-07T21:08:46.552Z,13.29
2019-06-07T21:11:16.537Z,13.29
2019-06-07T21:13:46.602Z,13.40
2019-06-07T21:16:16.658Z,13.22
2019-06-07T21:18:46.657Z,13.19
2019-06-07T21:21:16.717Z,13.04
2019-06-07T21:23:48.355Z,12.81
2019-06-07T21:26:18.422Z,12.87
2019-06-07T21:28:48.474Z,12.79
2019-06-07T21:31:20.130Z,12.62
2019-06-07T21:33:50.231Z,12.72
2019-06-07T21:36:20.222Z,12.76
2019-06-07T21:38:50.421Z,12.55
2019-06-07T21:41:20.499Z,12.59
2019-06-07T21:43:50.589Z,12.51
2019-06-07T21:46:20.989Z,12.61
2019-06-07T21:48:51.079Z,12.46
2019-06-07T21:51:21.087Z,12.39
2019-06-07T21:53:51.093Z,12.12
2019-06-07T21:56:21.103Z,12.16
2019-06-07T21:58:51.165Z,12.03
2019-06-07T22:01:22.167Z,12.11
2019-06-07T22:03:52.252Z,11.97
2019-06-07T22:06:22.372Z,11.93
2019-06-07T22:08:52.548Z,12.04
2019-06-07T22:11:22.597Z,11.92
2019-06-07T22:13:52.649Z,11.77
2019-06-07T22:16:28.935Z,11.73
2019-06-07T22:18:54.327Z,11.49
2019-06-07T22:21:24.365Z,11.48
2019-06-07T22:23:54.374Z,11.53
2019-06-07T22:26:24.365Z,11.63
2019-06-07T22:28:54.369Z,11.61
2019-06-07T22:31:24.376Z,11.55
2019-06-07T22:33:54.448Z,11.49
2019-06-07T22:36:24.461Z,11.64
2019-06-07T22:38:54.476Z,11.58
2019-06-07T22:41:24.561Z,11.54
2019-06-07T22:43:54.610Z,11.64
2019-06-07T22:46:36.985Z,11.64
2019-06-07T22:48:57.494Z,11.76
2019-06-07T22:51:27.478Z,11.76
2019-06-07T22:53:57.526Z,11.65
2019-06-07T22:56:38.179Z,11.68
2019-06-07T22:59:11.921Z,11.77
2019-06-07T23:01:39.880Z,11.66
2019-06-07T23:04:10.465Z,11.73
2019-06-07T23:06:40.564Z,11.80
2019-06-07T23:09:10.858Z,11.76
2019-06-07T23:11:40.848Z,11.64
2019-06-07T23:14:11.190Z,11.69
2019-06-07T23:16:54.882Z,11.66
2019-06-07T23:19:13.808Z,11.72
2019-06-07T23:21:43.942Z,11.71
2019-06-07T23:24:14.203Z,11.60
2019-06-07T23:26:44.254Z,11.74
2019-06-07T23:29:14.561Z,11.69
2019-06-07T23:31:44.543Z,11.73
2019-06-07T23:34:14.729Z,11.65
2019-06-07T23:36:44.735Z,11.57
2019-06-07T23:39:15.643Z,11.60
2019-06-07T23:41:45.622Z,11.65
2019-06-07T23:44:15.685Z,11.64
2019-06-07T23:46:45.681Z,11.56
2019-06-07T23:49:15.715Z,11.40
2019-06-07T23:51:45.705Z,11.43
2019-06-07T23:54:15.741Z,11.39
2019-06-07T23:56:45.716Z,11.32
2019-06-07T23:59:16.125Z,11.29
